Time;durP1;ratioP1;P1;durP2;ratioP2;P2;SDS_P1;SDS_P2;PMS_P1;PMS_P2;Temp;Humidity;BMP_temperature;BMP_pressure;BME280_temperature;BME280_humidity;BME280_pressure;Samples;Min_cycle;Max_cycle;Signal;HPM_P1;HPM_P2
2022/09/20 00:01:53;;;;;;;1.02;0.50;;;;;;;22.89;40.99;94862.31;5002627;28;20026;-61
2022/09/20 00:04:18;;;;;;;1.25;0.60;;;;;;;23.79;40.54;94997.97;5003193;28;20455;-62
2022/09/20 00:06:44;;;;;;;1.45;0.47;;;;;;;23.79;41.11;95003.44;5003291;28;20026;-63
2022/09/20 00:09:10;;;;;;;1.15;0.50;;;;;;;23.11;40.72;94919.34;4997232;28;20034;-61
2022/09/20 00:11:37;;;;;;;0.85;0.50;;;;;;;23.25;41.03;94929.09;4981859;28;20077;-61
2022/09/20 00:14:04;;;;;;;1.00;0.52;;;;;;;23.70;40.95;95006.50;5002191;28;20038;-61
2022/09/20 00:16:33;;;;;;;1.33;0.60;;;;;;;23.19;40.87;94944.75;5002197;28;20195;-61
2022/09/20 00:18:59;;;;;;;1.23;0.70;;;;;;;23.71;40.69;95002.53;4999017;28;20036;-62
2022/09/20 00:21:27;;;;;;;1.00;0.50;;;;;;;23.26;40.88;94941.50;4983691;28;20061;-61
2022/09/20 00:23:52;;;;;;;0.93;0.45;;;;;;;23.57;40.66;94987.25;4992064;28;20036;-61
2022/09/20 00:26:18;;;;;;;1.17;0.60;;;;;;;23.27;40.93;94937.50;4978838;28;20034;-60
2022/09/20 00:28:45;;;;;;;1.13;0.50;;;;;;;23.32;41.33;94950.34;5001792;28;20034;-61
2022/09/20 00:31:11;;;;;;;1.08;0.50;;;;;;;23.21;41.29;94933.34;4983049;28;20145;-61
2022/09/20 00:36:21;;;;;;;0.90;0.50;;;;;;;23.42;40.94;94959.66;4989253;28;20041;-62
2022/09/20 00:38:46;;;;;;;1.27;0.57;;;;;;;23.71;41.30;95013.44;4998511;28;20061;-61
2022/09/20 00:41:12;;;;;;;1.38;0.57;;;;;;;23.64;41.00;95008.53;4980882;28;20759;-62
2022/09/20 00:43:39;;;;;;;1.10;0.60;;;;;;;23.33;41.21;94968.16;4987494;28;21335;-62
2022/09/20 00:46:05;;;;;;;1.15;0.50;;;;;;;23.52;40.91;95002.41;4982293;28;20030;-61
2022/09/20 00:48:31;;;;;;;1.13;0.60;;;;;;;23.34;41.49;94963.47;4992104;28;20041;-61
2022/09/20 00:51:08;;;;;;;0.75;0.40;;;;;;;23.59;41.26;95006.59;4983939;28;20386;-60
2022/09/20 00:53:41;;;;;;;0.90;0.40;;;;;;;23.71;41.19;95014.16;4985073;28;20026;-61
2022/09/20 00:56:09;;;;;;;1.30;0.50;;;;;;;23.47;41.16;94986.13;4961089;28;20824;-61
2022/09/20 00:58:37;;;;;;;1.00;0.50;;;;;;;23.26;41.04;94967.97;4996471;28;20034;-62
2022/09/20 01:01:02;;;;;;;0.77;0.45;;;;;;;23.36;41.20;94991.66;4949006;28;20034;-60
2022/09/20 01:03:30;;;;;;;1.95;0.50;;;;;;;23.57;41.57;95003.59;4965336;28;20034;-62
2022/09/20 01:05:56;;;;;;;0.85;0.40;;;;;;;23.67;41.16;95007.50;4994060;28;21260;-62
2022/09/20 01:08:23;;;;;;;0.70;0.40;;;;;;;23.12;41.35;94937.19;4994234;28;20034;-61
2022/09/20 01:10:49;;;;;;;1.08;0.50;;;;;;;23.57;41.35;95009.06;4965375;28;20045;-61
2022/09/20 01:13:14;;;;;;;0.60;0.40;;;;;;;22.92;41.64;94912.31;4994769;28;20368;-62
2022/09/20 01:15:40;;;;;;;0.95;0.50;;;;;;;23.13;41.48;94938.63;5001011;28;20053;-63
2022/09/20 01:18:06;;;;;;;1.05;0.60;;;;;;;22.99;41.37;94917.97;4964481;28;20101;-60
2022/09/20 01:20:33;;;;;;;0.70;0.50;;;;;;;23.66;41.04;95016.94;4971132;28;20787;-61
2022/09/20 01:23:08;;;;;;;0.95;0.43;;;;;;;23.28;41.18;94960.78;4985820;28;20038;-61
2022/09/20 01:25:52;;;;;;;0.90;0.60;;;;;;;23.61;41.66;95009.53;4980031;28;20038;-63
2022/09/20 01:28:18;;;;;;;0.85;0.50;;;;;;;23.24;41.23;94954.88;5002068;28;20041;-61
2022/09/20 01:31:19;;;;;;;0.85;0.50;;;;;;;23.53;41.69;94992.28;4967166;28;20026;-62
2022/09/20 01:33:52;;;;;;;0.93;0.60;;;;;;;23.49;41.37;94986.34;4963929;28;20130;-61
2022/09/20 01:36:30;;;;;;;1.00;0.57;;;;;;;23.41;41.37;94974.53;4965356;28;20030;-62
2022/09/20 01:39:11;;;;;;;0.75;0.50;;;;;;;23.62;41.51;95000.09;4963939;28;20035;-62
2022/09/20 01:41:55;;;;;;;0.68;0.47;;;;;;;23.59;41.63;95009.31;4945042;28;20045;-62
2022/09/20 01:44:55;;;;;;;1.25;0.70;;;;;;;23.56;41.33;95004.88;4996408;28;20121;-61
2022/09/20 01:47:26;;;;;;;0.77;0.50;;;;;;;23.59;41.21;95006.59;4981129;28;20486;-61
2022/09/20 01:50:10;;;;;;;0.80;0.50;;;;;;;23.50;41.42;94999.47;4973927;28;20045;-62
2022/09/20 01:53:12;;;;;;;0.82;0.40;;;;;;;23.56;41.78;95021.22;4968695;28;20069;-61
2022/09/20 01:56:03;;;;;;;1.20;0.50;;;;;;;23.59;41.77;95022.94;4980157;28;20084;-63
2022/09/20 01:58:54;;;;;;;0.98;0.50;;;;;;;23.60;41.23;95013.50;4977743;28;20149;-61
2022/09/20 02:01:32;;;;;;;0.70;0.52;;;;;;;23.61;41.38;95017.72;4975855;28;20062;-60
2022/09/20 02:04:17;;;;;;;0.90;0.60;;;;;;;23.53;41.65;95014.06;4999127;28;20029;-63
2022/09/20 02:07:13;;;;;;;0.82;0.60;;;;;;;23.17;41.48;94944.53;4954503;28;20018;-63
2022/09/20 02:09:57;;;;;;;0.80;0.50;;;;;;;23.57;41.42;94992.72;4964898;28;20476;-63
2022/09/20 02:12:43;;;;;;;0.82;0.60;;;;;;;23.55;41.82;94984.31;4987232;28;20054;-61
2022/09/20 02:15:14;;;;;;;0.60;0.40;;;;;;;23.53;41.46;94992.28;4983179;28;20568;-62
2022/09/20 02:17:50;;;;;;;0.80;0.50;;;;;;;23.29;41.54;94953.34;4968392;28;20113;-62
2022/09/20 02:20:19;;;;;;;0.95;0.52;;;;;;;23.53;41.72;94992.28;4963313;28;20107;-62
2022/09/20 02:22:47;;;;;;;0.80;0.60;;;;;;;23.53;41.84;94989.53;4987486;28;20045;-62
2022/09/20 02:25:36;;;;;;;0.60;0.43;;;;;;;23.49;41.82;94986.34;4993840;28;20824;-63
2022/09/20 02:28:12;;;;;;;0.70;0.55;;;;;;;23.42;41.74;94965.09;4964675;28;20426;-63
2022/09/20 02:30:38;;;;;;;0.90;0.50;;;;;;;23.51;41.68;94990.06;4966304;28;20108;-62
2022/09/20 02:33:16;;;;;;;0.73;0.50;;;;;;;23.50;41.77;94999.47;4987991;28;20475;-62
2022/09/20 02:36:13;;;;;;;1.00;0.60;;;;;;;23.52;41.54;94985.31;5000372;28;20064;-62
2022/09/20 02:38:40;;;;;;;0.75;0.60;;;;;;;23.51;41.59;94989.28;4983742;28;20334;-61
2022/09/20 02:41:09;;;;;;;0.90;0.60;;;;;;;23.54;41.86;94993.72;4969396;28;20042;-63
2022/09/20 02:43:43;;;;;;;0.93;0.60;;;;;;;22.91;41.44;94906.13;4986305;28;20042;-61
2022/09/20 02:46:11;;;;;;;0.80;0.50;;;;;;;23.54;41.90;94993.72;4980463;28;20069;-61
2022/09/20 02:48:55;;;;;;;1.00;0.57;;;;;;;23.46;42.06;94987.38;4959058;28;20042;-60
2022/09/20 02:51:42;;;;;;;1.00;0.60;;;;;;;23.18;41.49;94946.00;4977645;28;20042;-61
2022/09/20 02:54:23;;;;;;;0.88;0.60;;;;;;;23.49;41.45;95003.44;4993433;28;20042;-62
2022/09/20 02:57:18;;;;;;;0.80;0.70;;;;;;;23.45;41.89;95007.69;4968727;28;20064;-62
2022/09/20 02:59:45;;;;;;;0.93;0.60;;;;;;;23.45;41.98;95007.69;4982234;28;20757;-61
2022/09/20 03:02:26;;;;;;;1.38;0.70;;;;;;;23.49;42.10;95014.34;4990603;28;20404;-62
2022/09/20 03:05:03;;;;;;;0.98;0.57;;;;;;;23.51;41.68;95011.09;4983340;28;20046;-62
2022/09/20 03:07:40;;;;;;;0.85;0.60;;;;;;;22.79;41.46;94900.53;4980805;28;20589;-63
2022/09/20 03:10:30;;;;;;;0.75;0.57;;;;;;;23.42;41.67;94986.91;4957789;28;20057;-61
2022/09/20 03:13:21;;;;;;;0.82;0.50;;;;;;;23.43;41.63;95007.47;4974872;28;20117;-61
2022/09/20 03:16:14;;;;;;;0.85;0.65;;;;;;;23.52;41.64;94999.69;5000013;28;20072;-60
2022/09/20 03:19:01;;;;;;;1.17;0.60;;;;;;;23.24;41.95;94965.75;4985678;28;20034;-62
2022/09/20 03:21:33;;;;;;;0.98;0.70;;;;;;;23.48;42.13;95017.56;4965180;28;20585;-62
2022/09/20 03:24:13;;;;;;;0.60;0.50;;;;;;;23.43;42.06;95019.09;4997275;28;20046;-60
2022/09/20 03:26:46;;;;;;;1.17;0.90;;;;;;;23.48;41.74;95023.03;4993854;28;20153;-61
2022/09/20 03:29:19;;;;;;;0.80;0.60;;;;;;;23.50;42.05;95020.53;4954187;28;20033;-63
2022/09/20 03:32:08;;;;;;;0.85;0.60;;;;;;;23.09;42.10;94970.88;4974294;28;20092;-62
2022/09/20 03:34:44;;;;;;;0.98;0.60;;;;;;;22.87;41.95;94936.84;4984052;28;20040;-61
2022/09/20 03:37:46;;;;;;;0.70;0.60;;;;;;;23.46;41.91;95030.97;4962369;28;20280;-60
2022/09/20 03:40:39;;;;;;;0.70;0.50;;;;;;;23.42;41.83;95030.50;4983597;28;20058;-61
2022/09/20 03:43:36;;;;;;;1.55;0.60;;;;;;;23.46;42.09;95026.25;4972629;28;20095;-63
2022/09/20 03:46:13;;;;;;;0.90;0.60;;;;;;;23.40;42.30;95027.56;4979929;28;20096;-61
2022/09/20 03:48:48;;;;;;;1.00;0.77;;;;;;;23.47;41.94;95024.28;4973588;28;20084;-63
2022/09/20 03:51:20;;;;;;;0.93;0.70;;;;;;;23.45;41.98;95029.50;4995745;28;20042;-62
2022/09/20 03:54:05;;;;;;;0.80;0.60;;;;;;;23.46;42.20;95028.25;4990378;28;20030;-61
2022/09/20 03:56:31;;;;;;;0.80;0.50;;;;;;;23.47;41.82;95021.56;4985271;28;20038;-60
2022/09/20 03:59:05;;;;;;;0.70;0.60;;;;;;;23.46;41.71;95025.53;4993467;28;20129;-60
2022/09/20 04:01:57;;;;;;;0.98;0.50;;;;;;;23.46;41.74;95030.97;4994215;28;20104;-61
2022/09/20 04:04:45;;;;;;;0.90;0.70;;;;;;;22.84;41.90;94949.50;4978350;28;20150;-61
2022/09/20 04:07:16;;;;;;;0.80;0.50;;;;;;;23.26;41.92;95017.78;4976145;28;20046;-60
2022/09/20 04:10:01;;;;;;;1.10;0.80;;;;;;;23.37;41.89;95034.03;4967833;28;20379;-61
2022/09/20 04:12:48;;;;;;;1.00;0.88;;;;;;;23.41;42.31;95050.84;4989331;28;20034;-64
2022/09/20 04:15:40;;;;;;;1.02;0.70;;;;;;;22.85;42.01;94969.31;4996234;28;20168;-61
2022/09/20 04:18:25;;;;;;;1.08;0.80;;;;;;;23.40;41.98;95049.38;4963245;28;20093;-65
2022/09/20 04:21:09;;;;;;;1.27;0.70;;;;;;;23.21;41.98;95036.88;4962132;28;20093;-61
2022/09/20 04:23:38;;;;;;;1.77;0.80;;;;;;;23.12;42.45;95018.91;4985436;28;20037;-62
2022/09/20 04:26:04;;;;;;;1.45;0.80;;;;;;;23.40;42.52;95060.25;4969012;28;20095;-63
2022/09/20 04:29:01;;;;;;;0.55;0.50;;;;;;;22.76;41.84;94948.56;4983944;28;20042;-64
2022/09/20 04:31:44;;;;;;;1.75;0.70;;;;;;;23.44;42.39;95049.84;4928658;28;20056;-61
2022/09/20 04:34:18;;;;;;;1.15;0.63;;;;;;;23.34;42.21;95032.31;4980349;28;20136;-64
2022/09/20 04:37:02;;;;;;;0.98;0.65;;;;;;;23.52;42.51;95070.56;4948081;28;20497;-64
2022/09/20 04:39:42;;;;;;;0.98;0.60;;;;;;;23.05;42.59;95003.09;4961927;28;20058;-62
2022/09/20 04:42:28;;;;;;;1.85;0.90;;;;;;;23.48;42.48;95077.53;4963544;28;20783;-65
2022/09/20 04:45:03;;;;;;;1.10;0.70;;;;;;;23.39;43.28;95069.69;4980015;28;20558;-64
2022/09/20 04:47:50;;;;;;;0.80;0.70;;;;;;;23.49;43.15;95073.56;4960614;28;20496;-64
2022/09/20 04:50:58;;;;;;;1.00;0.80;;;;;;;23.16;42.79;95030.22;4978965;28;20053;-65
2022/09/20 04:53:36;;;;;;;0.80;0.63;;;;;;;23.41;43.26;95072.66;4930392;28;20523;-61
2022/09/20 04:56:18;;;;;;;1.02;0.70;;;;;;;23.44;43.06;95066.19;4948667;28;20102;-66
2022/09/20 04:58:47;;;;;;;1.15;0.80;;;;;;;23.46;43.27;95075.31;4964981;28;20915;-65
2022/09/20 05:01:25;;;;;;;1.33;0.70;;;;;;;23.47;43.31;95065.91;4947793;28;20445;-66
2022/09/20 05:04:11;;;;;;;0.85;0.70;;;;;;;23.46;43.19;95072.59;4979907;28;20050;-67
2022/09/20 05:07:14;;;;;;;1.00;0.70;;;;;;;23.45;42.95;95064.91;4980924;28;20105;-61
2022/09/20 05:10:02;;;;;;;1.55;0.70;;;;;;;23.41;43.35;95062.47;4980056;28;20049;-64
2022/09/20 05:12:46;;;;;;;0.88;0.55;;;;;;;23.42;43.30;95074.13;4980293;28;20100;-62
2022/09/20 05:15:49;;;;;;;1.50;0.70;;;;;;;23.58;42.99;95075.97;4986479;28;20059;-63
2022/09/20 05:18:34;;;;;;;1.67;0.60;;;;;;;23.60;42.86;95085.13;4980182;28;20113;-63
2022/09/20 05:21:37;;;;;;;0.95;0.57;;;;;;;23.57;42.68;95085.38;4981004;28;20545;-66
2022/09/20 05:24:05;;;;;;;1.27;0.60;;;;;;;23.68;42.64;95079.88;4981347;28;20046;-62
2022/09/20 05:26:55;;;;;;;1.08;0.80;;;;;;;23.61;42.89;95088.59;4962411;28;20045;-65
2022/09/20 05:29:49;;;;;;;1.27;0.60;;;;;;;23.62;43.22;95076.44;4981128;28;20049;-62
2022/09/20 05:32:45;;;;;;;1.63;0.80;;;;;;;23.86;43.32;95084.69;4962969;28;20085;-66
2022/09/20 05:35:53;;;;;;;2.10;0.70;;;;;;;23.94;43.15;95081.59;4980572;28;20042;-67
2022/09/20 05:38:18;;;;;;;1.42;0.70;;;;;;;24.09;42.48;95092.13;4963156;28;20046;-63
2022/09/20 05:41:03;;;;;;;2.75;1.45;;;;;;;23.84;42.55;95038.06;4980904;28;20543;-63
2022/09/20 05:43:34;;;;;;;2.63;1.75;;;;;;;23.88;42.11;95020.94;4981147;28;20049;-62
2022/09/20 05:46:02;;;;;;;1.90;1.30;;;;;;;24.56;41.85;95088.66;4945804;28;20362;-67
2022/09/20 05:48:54;;;;;;;2.00;1.67;;;;;;;24.22;41.24;95022.03;4980412;28;20034;-62
2022/09/20 05:51:31;;;;;;;1.60;1.30;;;;;;;24.81;41.26;95084.59;4975137;28;20085;-64
2022/09/20 05:54:11;;;;;;;2.83;1.60;;;;;;;24.80;41.29;95080.38;4991087;28;20042;-66
2022/09/20 05:56:55;;;;;;;2.35;1.65;;;;;;;25.03;41.09;95080.31;4976479;28;20060;-67
2022/09/20 05:59:36;;;;;;;2.08;1.40;;;;;;;24.90;40.45;95050.19;5000837;28;20450;-63
2022/09/20 06:02:24;;;;;;;2.03;1.38;;;;;;;25.19;40.44;95076.63;4979906;28;20042;-64
2022/09/20 06:05:21;;;;;;;2.53;1.35;;;;;;;25.01;40.81;95088.31;4978842;28;20042;-63
2022/09/20 06:08:28;;;;;;;1.58;1.13;;;;;;;25.30;40.85;95081.91;4910222;28;20542;-63
2022/09/20 06:11:02;;;;;;;2.15;1.30;;;;;;;25.42;40.42;95077.75;4956224;28;20046;-62
2022/09/20 06:13:32;;;;;;;2.13;1.10;;;;;;;25.55;39.62;95091.47;4947680;28;20071;-63
2022/09/20 06:16:03;;;;;;;3.17;1.50;;;;;;;25.64;39.90;95088.34;4962751;28;20050;-64
2022/09/20 06:18:46;;;;;;;1.30;1.05;;;;;;;25.12;39.84;95000.69;4996131;28;20029;-64
2022/09/20 06:21:44;;;;;;;2.10;1.02;;;;;;;25.79;39.74;95095.56;4965605;28;20054;-65
2022/09/20 06:24:29;;;;;;;1.83;1.17;;;;;;;25.85;39.75;95088.00;4979339;28;20049;-64
2022/09/20 06:26:55;;;;;;;2.08;1.10;;;;;;;25.71;39.78;95071.34;4962911;28;20042;-63
2022/09/20 06:29:30;;;;;;;2.80;1.20;;;;;;;25.19;39.63;94991.91;4979365;28;20459;-64
2022/09/20 06:31:56;;;;;;;1.75;1.05;;;;;;;25.45;39.12;95005.63;4961006;28;20050;-62
2022/09/20 06:34:21;;;;;;;1.80;0.95;;;;;;;25.65;39.20;95024.19;4978734;28;20478;-63
2022/09/20 06:42:37;;;;;;;1.92;1.08;;;;;;;25.59;39.20;95037.19;4965902;28;20045;-60
2022/09/20 06:45:03;;;;;;;2.35;1.05;;;;;;;25.42;39.27;95028.53;4979270;28;20042;-61
2022/09/20 06:47:28;;;;;;;1.75;0.90;;;;;;;25.72;39.05;95089.22;4977587;28;20129;-63
2022/09/20 06:49:54;;;;;;;1.40;1.00;;;;;;;25.33;39.09;95032.41;4979128;28;20034;-61
2022/09/20 06:52:21;;;;;;;2.05;1.00;;;;;;;25.51;39.63;95085.56;4979335;28;20199;-62
2022/09/20 06:54:50;;;;;;;4.45;1.00;;;;;;;25.52;39.15;95087.06;4979285;28;20034;-63
2022/09/20 06:57:17;;;;;;;2.20;1.00;;;;;;;25.41;39.75;95092.66;4979306;28;20035;-63
2022/09/20 06:59:42;;;;;;;2.78;1.00;;;;;;;25.46;38.98;95084.38;4979426;28;20108;-63
2022/09/20 07:02:08;;;;;;;2.97;1.33;;;;;;;25.31;38.86;95094.34;4978497;28;20039;-61
2022/09/20 07:04:34;;;;;;;1.92;0.82;;;;;;;25.27;39.23;95082.94;4977988;28;20045;-61
2022/09/20 07:07:00;;;;;;;2.00;0.90;;;;;;;25.03;38.97;95058.47;4979286;28;20042;-62
2022/09/20 07:09:26;;;;;;;1.85;0.90;;;;;;;25.26;39.17;95091.66;4980819;28;20076;-62
2022/09/20 07:11:54;;;;;;;2.25;0.90;;;;;;;24.91;39.32;95051.66;4978614;28;20038;-62
2022/09/20 07:14:19;;;;;;;1.30;0.77;;;;;;;25.23;39.16;95096.19;4980035;28;20035;-63
2022/09/20 07:16:45;;;;;;;2.13;0.90;;;;;;;25.14;39.59;95090.34;4979303;28;20100;-63
2022/09/20 07:19:10;;;;;;;1.42;0.90;;;;;;;24.69;39.48;95034.09;4979678;28;20035;-62
2022/09/20 07:21:35;;;;;;;1.38;0.68;;;;;;;25.08;39.53;95093.19;4980578;28;20088;-65
2022/09/20 07:24:01;;;;;;;1.73;0.77;;;;;;;25.16;39.49;95096.78;4979260;28;20035;-62
2022/09/20 07:26:28;;;;;;;1.65;0.70;;;;;;;24.28;39.14;94984.47;4978644;28;20085;-62
2022/09/20 07:28:53;;;;;;;1.70;0.70;;;;;;;25.01;39.62;95099.25;4979277;28;20046;-61
2022/09/20 07:31:20;;;;;;;2.45;1.10;;;;;;;24.82;39.94;95076.59;4976469;28;20166;-62
2022/09/20 07:33:45;;;;;;;2.80;0.80;;;;;;;25.00;39.69;95105.94;4979995;28;20212;-62
2022/09/20 07:36:11;;;;;;;2.03;0.95;;;;;;;24.92;39.52;95096.84;4985075;28;20201;-61
2022/09/20 07:38:37;;;;;;;2.17;1.13;;;;;;;24.90;39.63;95087.69;4967464;28;20030;-62
2022/09/20 07:41:02;;;;;;;1.58;0.80;;;;;;;24.47;39.84;95039.88;4983464;28;20031;-61
2022/09/20 07:43:28;;;;;;;1.85;0.82;;;;;;;24.63;39.93;95058.00;4979358;28;20035;-65
2022/09/20 07:45:54;;;;;;;2.17;0.90;;;;;;;24.92;39.79;95102.31;4983096;28;20030;-62
2022/09/20 07:48:30;;;;;;;2.17;0.85;;;;;;;24.55;39.52;95057.13;4965897;28;20022;-61
2022/09/20 07:51:12;;;;;;;1.90;0.80;;;;;;;24.80;39.70;95094.03;4966412;28;20031;-62
2022/09/20 07:53:38;;;;;;;1.33;0.70;;;;;;;24.87;39.85;95094.94;4983304;28;20067;-61
2022/09/20 07:56:14;;;;;;;1.20;0.70;;;;;;;24.69;40.15;95072.31;4964721;28;20046;-62
2022/09/20 07:58:40;;;;;;;1.00;0.70;;;;;;;24.08;39.95;94987.72;4965506;28;20049;-62
2022/09/20 08:01:07;;;;;;;2.15;1.20;;;;;;;24.71;40.19;95088.94;4965302;28;20042;-63
2022/09/20 08:03:33;;;;;;;1.50;0.80;;;;;;;23.97;40.23;95011.66;4983509;28;20023;-62
2022/09/20 08:06:00;;;;;;;1.00;0.73;;;;;;;24.70;39.95;95084.75;4982242;28;20053;-63
2022/09/20 08:08:27;;;;;;;1.95;0.70;;;;;;;24.50;40.25;95066.13;4983049;28;20049;-61
2022/09/20 08:10:54;;;;;;;1.55;0.70;;;;;;;24.70;40.70;95090.19;4982673;28;20517;-61
2022/09/20 08:13:19;;;;;;;2.25;0.80;;;;;;;24.73;40.19;95086.44;4983040;28;20485;-62
2022/09/20 08:15:45;;;;;;;1.10;0.80;;;;;;;24.41;40.00;95044.66;4982684;28;20050;-61
2022/09/20 08:18:12;;;;;;;1.67;0.70;;;;;;;24.55;40.20;95073.50;4981535;28;20049;-60
2022/09/20 08:20:38;;;;;;;2.03;0.85;;;;;;;24.49;40.03;95064.66;4982747;28;20071;-61
2022/09/20 08:23:08;;;;;;;1.20;0.70;;;;;;;24.66;40.16;95095.22;4980950;28;20038;-61
2022/09/20 08:25:33;;;;;;;2.58;0.75;;;;;;;24.55;39.97;95076.25;4982432;28;20031;-64
2022/09/20 08:27:59;;;;;;;1.15;0.60;;;;;;;24.62;40.05;95100.22;4982297;28;20031;-61
2022/09/20 08:30:24;;;;;;;2.85;0.90;;;;;;;24.29;40.54;95046.00;4983026;28;20026;-63
2022/09/20 08:32:51;;;;;;;2.47;1.00;;;;;;;24.60;40.12;95091.81;4981226;28;20121;-62
2022/09/20 08:35:16;;;;;;;1.25;0.75;;;;;;;24.19;40.03;95027.78;4982073;28;20046;-60
2022/09/20 08:37:45;;;;;;;1.50;0.80;;;;;;;24.33;40.40;95035.56;4981063;28;20049;-63
2022/09/20 08:40:14;;;;;;;1.48;0.60;;;;;;;24.57;40.47;95071.00;4980827;28;20041;-61
2022/09/20 08:42:43;;;;;;;1.08;0.65;;;;;;;24.58;39.90;95072.47;4962596;28;20033;-61
2022/09/20 08:45:17;;;;;;;2.40;0.68;;;;;;;24.19;40.32;95031.22;4964111;28;20031;-61
2022/09/20 08:47:55;;;;;;;0.85;0.55;;;;;;;24.53;40.07;95065.09;4980664;28;20046;-61
2022/09/20 08:50:21;;;;;;;1.08;0.63;;;;;;;24.43;39.86;95066.72;4965845;28;20543;-62
2022/09/20 08:52:48;;;;;;;1.17;0.65;;;;;;;24.50;40.06;95068.88;4966965;28;20045;-61
2022/09/20 08:55:18;;;;;;;3.00;0.70;;;;;;;24.37;39.83;95050.38;4983386;28;20430;-64
2022/09/20 08:57:49;;;;;;;1.15;0.50;;;;;;;24.34;32.42;95045.22;4978563;28;21285;-61
2022/09/20 09:00:16;;;;;;;2.60;0.70;;;;;;;23.30;35.35;95059.09;4946851;28;20102;-62
2022/09/20 09:02:42;;;;;;;2.78;0.70;;;;;;;23.60;36.92;95063.31;4980035;28;20070;-62
2022/09/20 09:05:32;;;;;;;0.80;0.60;;;;;;;24.19;36.71;95058.53;4992884;28;20458;-64
2022/09/20 09:08:05;;;;;;;1.30;0.80;;;;;;;24.39;37.57;95063.53;4976399;28;20038;-64
2022/09/20 09:10:35;;;;;;;1.33;0.60;;;;;;;24.61;37.80;95061.25;4965503;28;20810;-65
2022/09/20 09:13:01;;;;;;;3.53;0.60;;;;;;;24.79;37.78;95037.94;4965503;28;20026;-62
2022/09/20 09:15:31;;;;;;;0.63;0.45;;;;;;;24.83;37.85;95034.38;4965514;28;20089;-62
2022/09/20 09:17:57;;;;;;;1.90;0.60;;;;;;;24.82;37.66;95011.03;4970708;28;20031;-65
2022/09/20 09:20:23;;;;;;;2.33;0.60;;;;;;;24.53;38.07;94955.91;4996494;28;20041;-61
2022/09/20 09:23:04;;;;;;;0.90;0.50;;;;;;;25.09;37.46;95028.34;4986358;28;20468;-64
2022/09/20 09:25:33;;;;;;;1.60;0.77;;;;;;;25.14;37.82;95030.22;4996051;28;20462;-61
2022/09/20 09:28:16;;;;;;;2.80;0.50;;;;;;;25.01;37.70;94995.41;4991335;28;20030;-61
2022/09/20 09:30:43;;;;;;;2.28;0.63;;;;;;;25.48;37.88;95026.44;4950328;28;20108;-62
2022/09/20 09:33:31;;;;;;;0.95;0.40;;;;;;;25.65;36.91;95018.72;4946648;28;20150;-64
2022/09/20 09:36:06;;;;;;;0.95;0.50;;;;;;;25.74;36.78;95026.50;4962812;28;20061;-66
2022/09/20 09:38:39;;;;;;;1.15;0.82;;;;;;;25.37;36.48;94955.56;4979476;28;20130;-68
2022/09/20 09:41:16;;;;;;;1.80;0.47;;;;;;;25.92;36.42;95010.75;4949602;28;20060;-66
2022/09/20 09:43:42;;;;;;;1.35;0.57;;;;;;;25.89;36.23;94995.38;4978987;28;20034;-66
2022/09/20 09:46:22;;;;;;;0.88;0.40;;;;;;;25.80;36.45;94993.06;4980146;28;20188;-64
2022/09/20 09:48:52;;;;;;;;;;;;;;;25.61;36.05;94930.75;4981354;28;20041;-63
2022/09/20 09:51:19;;;;;;;0.93;0.50;;;;;;;25.89;35.90;94973.50;4962362;28;19909;-68
2022/09/20 09:53:45;;;;;;;0.90;0.43;;;;;;;25.86;35.40;94952.66;4979771;28;20092;-65
2022/09/20 09:56:26;;;;;;;0.65;0.40;;;;;;;26.29;35.67;95013.28;4962954;28;20073;-66
2022/09/20 09:59:09;;;;;;;0.93;0.50;;;;;;;26.36;35.73;95015.41;4969532;28;20074;-63
2022/09/20 10:01:49;;;;;;;1.90;0.60;;;;;;;26.13;35.37;94976.00;4947785;28;20231;-65
2022/09/20 10:04:35;;;;;;;1.67;0.50;;;;;;;26.54;34.92;95009.03;4980464;28;20046;-63
2022/09/20 10:07:22;;;;;;;1.40;0.40;;;;;;;26.58;34.78;95004.00;4978007;28;20030;-67
2022/09/20 10:10:03;;;;;;;0.63;0.30;;;;;;;26.57;34.97;95002.50;4948465;28;20372;-66
2022/09/20 10:12:47;;;;;;;0.60;0.40;;;;;;;26.72;34.83;94997.19;4979889;28;20133;-64
2022/09/20 10:15:34;;;;;;;0.55;0.47;;;;;;;26.76;34.78;94988.09;4980151;28;20085;-64
2022/09/20 10:18:10;;;;;;;1.15;0.32;;;;;;;26.67;35.37;95006.28;4980046;28;20049;-64
2022/09/20 10:21:08;;;;;;;0.98;0.60;;;;;;;26.79;34.79;95014.44;4979981;28;20078;-62
2022/09/20 10:23:56;;;;;;;0.95;0.40;;;;;;;26.65;35.15;94997.84;4965483;28;20070;-64
2022/09/20 10:26:46;;;;;;;0.80;0.40;;;;;;;26.68;35.09;95003.00;4978358;28;20493;-62
2022/09/20 10:29:26;;;;;;;1.02;0.70;;;;;;;26.59;35.26;95002.69;4978596;28;20038;-63
2022/09/20 10:32:09;;;;;;;1.60;0.45;;;;;;;26.41;35.06;94989.88;4945647;28;20038;-62
2022/09/20 10:34:49;;;;;;;0.65;0.40;;;;;;;26.43;35.59;94982.63;4963974;28;20068;-62
2022/09/20 10:37:25;;;;;;;0.68;0.40;;;;;;;26.37;35.38;95006.66;4979765;28;20042;-62
2022/09/20 10:40:18;;;;;;;0.88;0.50;;;;;;;25.83;35.65;94920.88;4960711;28;20416;-62
2022/09/20 10:45:48;;;;;;;1.48;0.40;;;;;;;25.98;35.09;94969.63;4978502;28;20109;-62
2022/09/20 10:48:23;;;;;;;0.85;0.30;;;;;;;25.94;36.13;95002.75;4948026;28;20078;-61
2022/09/20 10:51:02;;;;;;;1.00;0.40;;;;;;;25.76;36.23;94982.97;4963084;28;20234;-63
2022/09/20 10:53:54;;;;;;;0.80;0.40;;;;;;;25.63;36.38;94999.34;4978709;28;20046;-62
2022/09/20 10:56:32;;;;;;;1.10;0.32;;;;;;;25.31;37.07;94979.53;4959731;28;20053;-62
2022/09/20 10:59:00;;;;;;;1.42;0.52;;;;;;;25.48;37.11;95010.03;4962270;28;20093;-62
2022/09/20 11:01:32;;;;;;;1.67;0.50;;;;;;;25.46;37.12;94996.16;4979751;28;20066;-62
2022/09/20 11:04:31;;;;;;;0.82;0.32;;;;;;;25.35;36.74;94988.13;4980463;28;20123;-62
2022/09/20 11:07:06;;;;;;;1.45;0.73;;;;;;;25.40;36.87;94992.78;4980487;28;20680;-62
2022/09/20 11:09:41;;;;;;;0.93;0.40;;;;;;;25.15;37.37;94977.06;4981079;28;20411;-65
2022/09/20 11:12:09;;;;;;;0.90;0.40;;;;;;;25.18;37.26;94986.94;4950025;28;20143;-63
2022/09/20 11:14:39;;;;;;;1.50;0.60;;;;;;;25.19;37.12;94982.97;4982760;28;20523;-64
2022/09/20 11:17:12;;;;;;;0.77;0.50;;;;;;;25.06;37.36;94986.38;4969261;28;20150;-65
2022/09/20 11:19:59;;;;;;;1.98;0.60;;;;;;;25.09;37.41;94979.88;4959573;28;20407;-62
2022/09/20 11:22:43;;;;;;;1.45;0.60;;;;;;;24.49;37.37;94895.38;4977870;28;20499;-64
2022/09/20 11:25:18;;;;;;;1.08;0.50;;;;;;;25.10;37.37;94978.63;4958179;28;20038;-62
2022/09/20 11:27:50;;;;;;;2.10;0.70;;;;;;;24.94;37.70;94985.03;4975433;28;20176;-62
2022/09/20 11:30:20;;;;;;;1.92;0.50;;;;;;;24.93;37.52;94972.66;4977176;28;20057;-62
2022/09/20 11:32:51;;;;;;;;;;;;;;;24.93;37.68;94983.59;4974848;28;20133;-62
2022/09/20 11:35:29;;;;;;;0.93;0.40;;;;;;;24.60;37.50;94927.97;4984966;28;19929;-63
2022/09/20 11:38:04;;;;;;;1.55;0.63;;;;;;;24.60;37.59;94917.06;4968034;28;20104;-62
2022/09/20 11:40:51;;;;;;;1.42;0.50;;;;;;;24.75;37.29;94922.78;4985959;28;20109;-62
2022/09/20 11:43:17;;;;;;;1.42;0.60;;;;;;;24.98;37.50;94947.25;4992064;28;20074;-62
2022/09/20 11:45:42;;;;;;;1.77;0.80;;;;;;;24.25;37.30;94843.59;4975145;28;20490;-62
2022/09/20 11:48:21;;;;;;;1.45;0.60;;;;;;;25.13;37.50;94963.91;4981326;28;20104;-61
2022/09/20 11:51:03;;;;;;;2.08;1.00;;;;;;;25.09;37.37;94958.00;4992723;28;20073;-61
2022/09/20 11:53:39;;;;;;;1.90;0.60;;;;;;;25.14;37.52;94954.47;4977288;28;20096;-63
2022/09/20 11:56:14;;;;;;;1.38;0.60;;;;;;;24.60;37.19;94874.13;4993759;28;20046;-63
2022/09/20 11:58:48;;;;;;;0.90;0.50;;;;;;;24.67;37.33;94870.03;4982869;28;20117;-61
2022/09/20 12:01:15;;;;;;;1.33;0.50;;;;;;;24.66;37.56;94865.81;4973412;28;20057;-61
2022/09/20 12:03:41;;;;;;;2.10;0.60;;;;;;;24.96;37.96;94960.69;4984829;28;20030;-64
2022/09/20 12:06:24;;;;;;;1.50;0.88;;;;;;;24.57;37.33;94874.41;4967169;28;20059;-62
2022/09/20 12:08:50;;;;;;;1.50;0.70;;;;;;;24.52;37.71;94872.50;5003904;28;20030;-62
2022/09/20 12:11:15;;;;;;;1.20;0.70;;;;;;;24.82;37.53;94926.38;4960732;28;20034;-62
2022/09/20 12:13:42;;;;;;;1.30;0.60;;;;;;;24.93;37.61;94922.72;4991714;28;20057;-63
2022/09/20 12:16:35;;;;;;;1.27;0.55;;;;;;;24.95;37.19;94940.09;4973765;28;20050;-62
2022/09/20 12:19:02;;;;;;;1.13;0.55;;;;;;;24.82;37.53;94912.72;4974023;28;20077;-63
2022/09/20 12:21:28;;;;;;;1.42;0.68;;;;;;;24.81;37.70;94920.69;4961427;28;20030;-64
2022/09/20 12:23:56;;;;;;;1.15;0.50;;;;;;;24.96;37.70;94944.28;4961969;28;20061;-64
2022/09/20 12:26:24;;;;;;;1.67;0.60;;;;;;;25.03;37.63;94943.69;4973458;28;20042;-63